sensor_id;sensor_type;location;lat;lon;timestamp;temperature;humidity
81800;DHT22;71195;52.528;5.704;2023-09-18T00:00:17;19.50;72.10
81800;DHT22;71195;52.528;5.704;2023-09-18T00:02:47;19.50;72.10
81800;DHT22;71195;52.528;5.704;2023-09-18T00:05:17;19.50;72.20
81800;DHT22;71195;52.528;5.704;2023-09-18T00:07:46;19.50;72.20
81800;DHT22;71195;52.528;5.704;2023-09-18T00:10:15;19.50;72.20
81800;DHT22;71195;52.528;5.704;2023-09-18T00:12:47;19.50;72.20
81800;DHT22;71195;52.528;5.704;2023-09-18T00:15:16;19.60;72.10
81800;DHT22;71195;52.528;5.704;2023-09-18T00:17:45;19.60;72.20
81800;DHT22;71195;52.528;5.704;2023-09-18T00:20:14;19.60;72.20
81800;DHT22;71195;52.528;5.704;2023-09-18T00:22:45;19.60;72.40
81800;DHT22;71195;52.528;5.704;2023-09-18T00:25:14;19.60;72.40
81800;DHT22;71195;52.528;5.704;2023-09-18T00:27:43;19.60;72.40
81800;DHT22;71195;52.528;5.704;2023-09-18T00:30:16;19.60;72.30
81800;DHT22;71195;52.528;5.704;2023-09-18T00:32:45;19.70;72.30
81800;DHT22;71195;52.528;5.704;2023-09-18T00:35:16;19.70;72.30
81800;DHT22;71195;52.528;5.704;2023-09-18T00:37:46;19.70;72.40
81800;DHT22;71195;52.528;5.704;2023-09-18T00:40:15;19.70;72.30
81800;DHT22;71195;52.528;5.704;2023-09-18T00:42:44;19.70;72.30
81800;DHT22;71195;52.528;5.704;2023-09-18T00:45:16;19.70;72.30
81800;DHT22;71195;52.528;5.704;2023-09-18T00:47:45;19.70;72.30
81800;DHT22;71195;52.528;5.704;2023-09-18T00:50:15;19.70;72.20
81800;DHT22;71195;52.528;5.704;2023-09-18T00:52:46;19.70;72.20
81800;DHT22;71195;52.528;5.704;2023-09-18T00:55:16;19.70;72.10
81800;DHT22;71195;52.528;5.704;2023-09-18T00:57:46;19.80;72.20
81800;DHT22;71195;52.528;5.704;2023-09-18T01:00:18;19.80;72.30
81800;DHT22;71195;52.528;5.704;2023-09-18T01:02:48;19.80;72.30
81800;DHT22;71195;52.528;5.704;2023-09-18T01:05:17;19.70;72.40
81800;DHT22;71195;52.528;5.704;2023-09-18T01:07:47;19.80;72.50
81800;DHT22;71195;52.528;5.704;2023-09-18T01:10:16;19.80;72.50
81800;DHT22;71195;52.528;5.704;2023-09-18T01:12:48;19.80;72.40
81800;DHT22;71195;52.528;5.704;2023-09-18T01:15:22;19.80;72.50
81800;DHT22;71195;52.528;5.704;2023-09-18T01:17:55;19.80;72.50
81800;DHT22;71195;52.528;5.704;2023-09-18T01:20:24;19.80;72.50
81800;DHT22;71195;52.528;5.704;2023-09-18T01:22:56;19.80;72.50
81800;DHT22;71195;52.528;5.704;2023-09-18T01:25:25;19.90;72.40
81800;DHT22;71195;52.528;5.704;2023-09-18T01:27:54;19.80;72.50
81800;DHT22;71195;52.528;5.704;2023-09-18T01:30:24;19.90;72.40
81800;DHT22;71195;52.528;5.704;2023-09-18T01:32:54;19.90;72.30
81800;DHT22;71195;52.528;5.704;2023-09-18T01:35:25;19.90;72.30
81800;DHT22;71195;52.528;5.704;2023-09-18T01:37:59;19.90;72.30
81800;DHT22;71195;52.528;5.704;2023-09-18T01:40:30;19.90;72.40
81800;DHT22;71195;52.528;5.704;2023-09-18T01:42:59;19.90;72.30
81800;DHT22;71195;52.528;5.704;2023-09-18T01:45:28;19.90;72.30
81800;DHT22;71195;52.528;5.704;2023-09-18T01:47:58;19.90;72.20
81800;DHT22;71195;52.528;5.704;2023-09-18T01:50:28;19.90;72.20
81800;DHT22;71195;52.528;5.704;2023-09-18T01:53:01;19.90;72.20
81800;DHT22;71195;52.528;5.704;2023-09-18T01:55:30;19.90;72.20
81800;DHT22;71195;52.528;5.704;2023-09-18T01:58:00;19.90;72.20
81800;DHT22;71195;52.528;5.704;2023-09-18T02:00:29;19.90;72.20
81800;DHT22;71195;52.528;5.704;2023-09-18T02:02:58;19.90;72.20
81800;DHT22;71195;52.528;5.704;2023-09-18T02:05:27;19.90;72.30
81800;DHT22;71195;52.528;5.704;2023-09-18T02:07:56;19.90;72.30
81800;DHT22;71195;52.528;5.704;2023-09-18T02:10:28;19.90;72.40
81800;DHT22;71195;52.528;5.704;2023-09-18T02:12:57;19.90;72.40
81800;DHT22;71195;52.528;5.704;2023-09-18T02:15:27;19.90;72.20
81800;DHT22;71195;52.528;5.704;2023-09-18T02:17:58;19.90;72.20
81800;DHT22;71195;52.528;5.704;2023-09-18T02:20:27;19.90;72.20
81800;DHT22;71195;52.528;5.704;2023-09-18T02:22:56;19.90;72.30
81800;DHT22;71195;52.528;5.704;2023-09-18T02:25:28;20.00;72.30
81800;DHT22;71195;52.528;5.704;2023-09-18T02:27:57;20.00;72.20
81800;DHT22;71195;52.528;5.704;2023-09-18T02:30:27;20.00;72.20
81800;DHT22;71195;52.528;5.704;2023-09-18T02:32:56;20.00;72.20
81800;DHT22;71195;52.528;5.704;2023-09-18T02:35:25;20.00;72.20
81800;DHT22;71195;52.528;5.704;2023-09-18T02:37:55;20.00;72.20
81800;DHT22;71195;52.528;5.704;2023-09-18T02:40:29;20.00;72.30
81800;DHT22;71195;52.528;5.704;2023-09-18T02:42:58;20.00;72.30
81800;DHT22;71195;52.528;5.704;2023-09-18T02:45:28;20.00;72.40
81800;DHT22;71195;52.528;5.704;2023-09-18T02:47:57;20.00;72.40
81800;DHT22;71195;52.528;5.704;2023-09-18T02:50:26;20.00;72.40
81800;DHT22;71195;52.528;5.704;2023-09-18T02:52:55;20.00;72.40
81800;DHT22;71195;52.528;5.704;2023-09-18T02:55:25;20.00;72.40
81800;DHT22;71195;52.528;5.704;2023-09-18T02:57:57;20.00;72.40
81800;DHT22;71195;52.528;5.704;2023-09-18T03:00:26;20.00;72.40
81800;DHT22;71195;52.528;5.704;2023-09-18T03:02:56;20.00;72.50
81800;DHT22;71195;52.528;5.704;2023-09-18T03:05:25;20.10;72.30
81800;DHT22;71195;52.528;5.704;2023-09-18T03:07:54;20.10;72.30
81800;DHT22;71195;52.528;5.704;2023-09-18T03:10:24;20.10;72.30
81800;DHT22;71195;52.528;5.704;2023-09-18T03:12:53;20.10;72.30
81800;DHT22;71195;52.528;5.704;2023-09-18T03:15:25;20.20;72.20
81800;DHT22;71195;52.528;5.704;2023-09-18T03:17:54;20.20;72.20
81800;DHT22;71195;52.528;5.704;2023-09-18T03:20:24;20.20;72.20
81800;DHT22;71195;52.528;5.704;2023-09-18T03:22:56;20.20;72.20
81800;DHT22;71195;52.528;5.704;2023-09-18T03:25:26;20.20;72.20
81800;DHT22;71195;52.528;5.704;2023-09-18T03:27:56;20.20;72.30
81800;DHT22;71195;52.528;5.704;2023-09-18T03:30:32;20.20;72.30
81800;DHT22;71195;52.528;5.704;2023-09-18T03:33:03;20.20;72.30
81800;DHT22;71195;52.528;5.704;2023-09-18T03:35:45;20.20;72.40
81800;DHT22;71195;52.528;5.704;2023-09-18T03:38:17;20.30;72.30
81800;DHT22;71195;52.528;5.704;2023-09-18T03:40:47;20.30;72.40
81800;DHT22;71195;52.528;5.704;2023-09-18T03:43:16;20.30;72.30
81800;DHT22;71195;52.528;5.704;2023-09-18T03:45:48;20.30;72.30
81800;DHT22;71195;52.528;5.704;2023-09-18T03:48:19;20.30;72.30
81800;DHT22;71195;52.528;5.704;2023-09-18T03:50:49;20.30;72.30
81800;DHT22;71195;52.528;5.704;2023-09-18T03:53:18;20.30;72.40
81800;DHT22;71195;52.528;5.704;2023-09-18T03:55:48;20.30;72.50
81800;DHT22;71195;52.528;5.704;2023-09-18T03:58:17;20.30;72.40
81800;DHT22;71195;52.528;5.704;2023-09-18T04:00:49;20.30;72.40
81800;DHT22;71195;52.528;5.704;2023-09-18T04:03:19;20.30;72.40
81800;DHT22;71195;52.528;5.704;2023-09-18T04:05:48;20.30;72.40
81800;DHT22;71195;52.528;5.704;2023-09-18T04:08:17;20.30;72.40
81800;DHT22;71195;52.528;5.704;2023-09-18T04:10:46;20.30;72.50
81800;DHT22;71195;52.528;5.704;2023-09-18T04:13:15;20.20;72.50
81800;DHT22;71195;52.528;5.704;2023-09-18T04:15:45;20.30;72.50
81800;DHT22;71195;52.528;5.704;2023-09-18T04:18:16;20.30;72.40
81800;DHT22;71195;52.528;5.704;2023-09-18T04:20:45;20.30;72.50
81800;DHT22;71195;52.528;5.704;2023-09-18T04:23:19;20.30;72.50
81800;DHT22;71195;52.528;5.704;2023-09-18T04:25:49;20.30;72.50
81800;DHT22;71195;52.528;5.704;2023-09-18T04:28:20;20.30;72.50
81800;DHT22;71195;52.528;5.704;2023-09-18T04:30:49;20.30;72.60
81800;DHT22;71195;52.528;5.704;2023-09-18T04:33:22;20.30;72.50
81800;DHT22;71195;52.528;5.704;2023-09-18T04:35:51;20.30;72.60
81800;DHT22;71195;52.528;5.704;2023-09-18T04:38:21;20.30;72.50
81800;DHT22;71195;52.528;5.704;2023-09-18T04:40:57;20.20;72.50
81800;DHT22;71195;52.528;5.704;2023-09-18T04:43:27;20.30;72.50
81800;DHT22;71195;52.528;5.704;2023-09-18T04:45:57;20.30;72.50
81800;DHT22;71195;52.528;5.704;2023-09-18T04:48:29;20.30;72.40
81800;DHT22;71195;52.528;5.704;2023-09-18T04:50:59;20.30;72.30
81800;DHT22;71195;52.528;5.704;2023-09-18T04:53:30;20.30;72.30
81800;DHT22;71195;52.528;5.704;2023-09-18T04:56:00;20.30;72.30
81800;DHT22;71195;52.528;5.704;2023-09-18T04:58:32;20.30;72.30
81800;DHT22;71195;52.528;5.704;2023-09-18T05:01:03;20.30;72.30
81800;DHT22;71195;52.528;5.704;2023-09-18T05:03:40;20.30;72.30
81800;DHT22;71195;52.528;5.704;2023-09-18T05:06:09;20.40;72.20
81800;DHT22;71195;52.528;5.704;2023-09-18T05:08:38;20.30;72.20
81800;DHT22;71195;52.528;5.704;2023-09-18T05:11:07;20.30;72.20
81800;DHT22;71195;52.528;5.704;2023-09-18T05:13:36;20.30;72.10
81800;DHT22;71195;52.528;5.704;2023-09-18T05:16:05;20.40;72.10
81800;DHT22;71195;52.528;5.704;2023-09-18T05:18:34;20.40;72.10
81800;DHT22;71195;52.528;5.704;2023-09-18T05:21:09;20.40;72.20
81800;DHT22;71195;52.528;5.704;2023-09-18T05:23:38;20.40;72.20
81800;DHT22;71195;52.528;5.704;2023-09-18T05:26:07;20.40;72.20
81800;DHT22;71195;52.528;5.704;2023-09-18T05:28:37;20.50;72.20
81800;DHT22;71195;52.528;5.704;2023-09-18T05:31:06;20.50;72.20
81800;DHT22;71195;52.528;5.704;2023-09-18T05:33:35;20.50;72.30
81800;DHT22;71195;52.528;5.704;2023-09-18T05:36:07;20.50;72.30
81800;DHT22;71195;52.528;5.704;2023-09-18T05:38:36;20.50;72.40
81800;DHT22;71195;52.528;5.704;2023-09-18T05:41:05;20.50;72.40
81800;DHT22;71195;52.528;5.704;2023-09-18T05:43:35;20.50;72.30
81800;DHT22;71195;52.528;5.704;2023-09-18T05:46:05;20.50;72.30
81800;DHT22;71195;52.528;5.704;2023-09-18T05:48:34;20.50;72.30
81800;DHT22;71195;52.528;5.704;2023-09-18T05:51:03;20.60;72.30
81800;DHT22;71195;52.528;5.704;2023-09-18T05:53:35;20.50;72.40
81800;DHT22;71195;52.528;5.704;2023-09-18T05:56:05;20.50;72.50
81800;DHT22;71195;52.528;5.704;2023-09-18T05:58:35;20.50;72.60
81800;DHT22;71195;52.528;5.704;2023-09-18T06:01:06;20.50;72.60
81800;DHT22;71195;52.528;5.704;2023-09-18T06:03:35;20.50;72.70
81800;DHT22;71195;52.528;5.704;2023-09-18T06:06:05;20.50;72.70
81800;DHT22;71195;52.528;5.704;2023-09-18T06:08:37;20.50;72.80
81800;DHT22;71195;52.528;5.704;2023-09-18T06:11:06;20.50;72.80
81800;DHT22;71195;52.528;5.704;2023-09-18T06:13:36;20.50;72.80
81800;DHT22;71195;52.528;5.704;2023-09-18T06:16:05;20.50;72.90
81800;DHT22;71195;52.528;5.704;2023-09-18T06:18:36;20.60;72.90
81800;DHT22;71195;52.528;5.704;2023-09-18T06:21:05;20.60;72.90
81800;DHT22;71195;52.528;5.704;2023-09-18T06:23:37;20.60;72.90
81800;DHT22;71195;52.528;5.704;2023-09-18T06:26:06;20.60;72.80
81800;DHT22;71195;52.528;5.704;2023-09-18T06:28:35;20.60;72.80
81800;DHT22;71195;52.528;5.704;2023-09-18T06:31:05;20.60;72.80
81800;DHT22;71195;52.528;5.704;2023-09-18T06:33:35;20.60;72.90
81800;DHT22;71195;52.528;5.704;2023-09-18T06:36:04;20.60;72.80
81800;DHT22;71195;52.528;5.704;2023-09-18T06:38:36;20.60;72.80
81800;DHT22;71195;52.528;5.704;2023-09-18T06:41:05;20.70;72.80
81800;DHT22;71195;52.528;5.704;2023-09-18T06:43:35;20.60;72.80
81800;DHT22;71195;52.528;5.704;2023-09-18T06:46:04;20.60;72.80
81800;DHT22;71195;52.528;5.704;2023-09-18T06:48:35;20.60;72.80
81800;DHT22;71195;52.528;5.704;2023-09-18T06:51:04;20.70;72.80
81800;DHT22;71195;52.528;5.704;2023-09-18T06:53:36;20.60;72.80
81800;DHT22;71195;52.528;5.704;2023-09-18T06:56:06;20.70;72.80
81800;DHT22;71195;52.528;5.704;2023-09-18T06:58:35;20.70;72.80
81800;DHT22;71195;52.528;5.704;2023-09-18T07:01:04;20.70;72.80
81800;DHT22;71195;52.528;5.704;2023-09-18T07:03:35;20.70;72.80
81800;DHT22;71195;52.528;5.704;2023-09-18T07:06:06;20.70;72.90
81800;DHT22;71195;52.528;5.704;2023-09-18T07:08:38;20.70;72.80
81800;DHT22;71195;52.528;5.704;2023-09-18T07:11:07;20.70;72.80
81800;DHT22;71195;52.528;5.704;2023-09-18T07:13:36;20.70;72.80
81800;DHT22;71195;52.528;5.704;2023-09-18T07:16:06;20.70;72.80
81800;DHT22;71195;52.528;5.704;2023-09-18T07:18:35;20.70;72.90
81800;DHT22;71195;52.528;5.704;2023-09-18T07:21:04;20.70;72.80
81800;DHT22;71195;52.528;5.704;2023-09-18T07:23:33;20.80;72.90
81800;DHT22;71195;52.528;5.704;2023-09-18T07:26:06;20.80;72.90
81800;DHT22;71195;52.528;5.704;2023-09-18T07:28:35;20.80;72.80
81800;DHT22;71195;52.528;5.704;2023-09-18T07:31:05;20.80;72.90
81800;DHT22;71195;52.528;5.704;2023-09-18T07:33:35;20.80;73.00
81800;DHT22;71195;52.528;5.704;2023-09-18T07:36:04;20.80;73.00
81800;DHT22;71195;52.528;5.704;2023-09-18T07:38:33;20.80;73.00
81800;DHT22;71195;52.528;5.704;2023-09-18T07:41:03;20.80;72.90
81800;DHT22;71195;52.528;5.704;2023-09-18T07:43:34;20.90;72.90
81800;DHT22;71195;52.528;5.704;2023-09-18T07:46:05;20.90;73.00
81800;DHT22;71195;52.528;5.704;2023-09-18T07:48:34;20.90;72.90
81800;DHT22;71195;52.528;5.704;2023-09-18T07:51:03;21.00;72.90
81800;DHT22;71195;52.528;5.704;2023-09-18T07:53:33;21.00;72.90
81800;DHT22;71195;52.528;5.704;2023-09-18T07:56:02;21.00;72.80
81800;DHT22;71195;52.528;5.704;2023-09-18T07:58:35;21.00;72.90
81800;DHT22;71195;52.528;5.704;2023-09-18T08:01:05;21.10;72.90
81800;DHT22;71195;52.528;5.704;2023-09-18T08:03:35;21.10;72.90
81800;DHT22;71195;52.528;5.704;2023-09-18T08:06:04;21.10;72.80
81800;DHT22;71195;52.528;5.704;2023-09-18T08:08:34;21.20;72.80
81800;DHT22;71195;52.528;5.704;2023-09-18T08:11:07;21.20;72.80
81800;DHT22;71195;52.528;5.704;2023-09-18T08:13:40;21.20;72.80
81800;DHT22;71195;52.528;5.704;2023-09-18T08:16:09;21.30;72.90
81800;DHT22;71195;52.528;5.704;2023-09-18T08:18:40;21.20;73.00
81800;DHT22;71195;52.528;5.704;2023-09-18T08:21:09;21.20;73.00
81800;DHT22;71195;52.528;5.704;2023-09-18T08:23:40;21.20;73.00
81800;DHT22;71195;52.528;5.704;2023-09-18T08:26:09;21.30;73.00
81800;DHT22;71195;52.528;5.704;2023-09-18T08:28:41;21.30;73.00
81800;DHT22;71195;52.528;5.704;2023-09-18T08:31:11;21.30;73.00
81800;DHT22;71195;52.528;5.704;2023-09-18T08:33:40;21.40;72.90
81800;DHT22;71195;52.528;5.704;2023-09-18T08:36:09;21.40;72.90
81800;DHT22;71195;52.528;5.704;2023-09-18T08:38:38;21.40;73.00
81800;DHT22;71195;52.528;5.704;2023-09-18T08:41:10;21.50;73.00
81800;DHT22;71195;52.528;5.704;2023-09-18T08:43:43;21.50;72.90
81800;DHT22;71195;52.528;5.704;2023-09-18T08:46:12;21.50;72.90
81800;DHT22;71195;52.528;5.704;2023-09-18T08:48:42;21.50;72.80
81800;DHT22;71195;52.528;5.704;2023-09-18T08:51:12;21.50;72.80
81800;DHT22;71195;52.528;5.704;2023-09-18T08:53:42;21.50;72.90
81800;DHT22;71195;52.528;5.704;2023-09-18T08:56:13;21.60;72.80
81800;DHT22;71195;52.528;5.704;2023-09-18T08:58:47;21.70;72.80
81800;DHT22;71195;52.528;5.704;2023-09-18T09:01:16;21.70;72.80
81800;DHT22;71195;52.528;5.704;2023-09-18T09:03:47;21.70;72.70
81800;DHT22;71195;52.528;5.704;2023-09-18T09:06:16;21.70;72.70
81800;DHT22;71195;52.528;5.704;2023-09-18T09:08:46;21.80;72.60
81800;DHT22;71195;52.528;5.704;2023-09-18T09:11:15;21.90;72.50
81800;DHT22;71195;52.528;5.704;2023-09-18T09:13:48;22.00;72.40
81800;DHT22;71195;52.528;5.704;2023-09-18T09:16:38;22.10;72.20
81800;DHT22;71195;52.528;5.704;2023-09-18T09:19:08;22.10;72.10
81800;DHT22;71195;52.528;5.704;2023-09-18T09:21:41;22.20;72.10
81800;DHT22;71195;52.528;5.704;2023-09-18T09:24:11;22.20;71.90
81800;DHT22;71195;52.528;5.704;2023-09-18T09:26:42;22.30;72.00
81800;DHT22;71195;52.528;5.704;2023-09-18T09:29:19;22.30;71.90
81800;DHT22;71195;52.528;5.704;2023-09-18T09:31:48;22.40;71.90
81800;DHT22;71195;52.528;5.704;2023-09-18T09:34:24;22.50;71.80
81800;DHT22;71195;52.528;5.704;2023-09-18T09:36:56;22.50;71.80
81800;DHT22;71195;52.528;5.704;2023-09-18T09:39:27;22.50;71.70
81800;DHT22;71195;52.528;5.704;2023-09-18T09:41:59;22.60;71.60
81800;DHT22;71195;52.528;5.704;2023-09-18T09:44:34;22.70;71.40
81800;DHT22;71195;52.528;5.704;2023-09-18T09:47:06;22.70;71.40
81800;DHT22;71195;52.528;5.704;2023-09-18T09:49:45;22.80;71.20
81800;DHT22;71195;52.528;5.704;2023-09-18T09:52:18;22.90;71.00
81800;DHT22;71195;52.528;5.704;2023-09-18T09:54:49;22.90;71.00
81800;DHT22;71195;52.528;5.704;2023-09-18T09:57:18;22.90;71.00
81800;DHT22;71195;52.528;5.704;2023-09-18T09:59:50;22.90;70.80
81800;DHT22;71195;52.528;5.704;2023-09-18T10:02:20;22.90;70.90
81800;DHT22;71195;52.528;5.704;2023-09-18T10:04:51;22.80;70.90
81800;DHT22;71195;52.528;5.704;2023-09-18T10:07:20;22.80;70.90
81800;DHT22;71195;52.528;5.704;2023-09-18T10:09:50;22.80;70.80
81800;DHT22;71195;52.528;5.704;2023-09-18T10:12:20;22.70;70.70
81800;DHT22;71195;52.528;5.704;2023-09-18T10:14:55;22.70;70.70
81800;DHT22;71195;52.528;5.704;2023-09-18T10:17:25;22.70;70.60
81800;DHT22;71195;52.528;5.704;2023-09-18T10:20:02;22.60;70.70
81800;DHT22;71195;52.528;5.704;2023-09-18T10:22:45;22.60;70.70
81800;DHT22;71195;52.528;5.704;2023-09-18T10:25:19;22.60;70.60
81800;DHT22;71195;52.528;5.704;2023-09-18T10:27:50;22.50;70.60
81800;DHT22;71195;52.528;5.704;2023-09-18T10:30:23;22.50;70.50
81800;DHT22;71195;52.528;5.704;2023-09-18T10:32:53;22.50;70.50
81800;DHT22;71195;52.528;5.704;2023-09-18T10:35:23;22.50;70.40
81800;DHT22;71195;52.528;5.704;2023-09-18T10:37:54;22.50;70.30
81800;DHT22;71195;52.528;5.704;2023-09-18T10:40:23;22.50;70.20
81800;DHT22;71195;52.528;5.704;2023-09-18T10:42:55;22.50;70.20
81800;DHT22;71195;52.528;5.704;2023-09-18T10:45:28;22.50;70.10
81800;DHT22;71195;52.528;5.704;2023-09-18T10:47:58;22.50;69.90
81800;DHT22;71195;52.528;5.704;2023-09-18T10:50:29;22.50;69.90
81800;DHT22;71195;52.528;5.704;2023-09-18T10:52:59;22.50;69.80
81800;DHT22;71195;52.528;5.704;2023-09-18T10:55:28;22.50;69.70
81800;DHT22;71195;52.528;5.704;2023-09-18T10:58:00;22.50;69.60
81800;DHT22;71195;52.528;5.704;2023-09-18T11:00:32;22.60;69.50
81800;DHT22;71195;52.528;5.704;2023-09-18T11:03:13;22.60;69.30
81800;DHT22;71195;52.528;5.704;2023-09-18T11:05:44;22.90;69.00
81800;DHT22;71195;52.528;5.704;2023-09-18T11:08:27;23.10;68.80
81800;DHT22;71195;52.528;5.704;2023-09-18T11:11:01;23.30;68.40
81800;DHT22;71195;52.528;5.704;2023-09-18T11:13:38;23.40;68.20
81800;DHT22;71195;52.528;5.704;2023-09-18T11:16:18;23.40;68.20
81800;DHT22;71195;52.528;5.704;2023-09-18T11:18:50;23.30;68.20
81800;DHT22;71195;52.528;5.704;2023-09-18T11:21:25;23.30;68.30
81800;DHT22;71195;52.528;5.704;2023-09-18T11:24:05;23.20;68.30
81800;DHT22;71195;52.528;5.704;2023-09-18T11:26:39;23.20;68.30
81800;DHT22;71195;52.528;5.704;2023-09-18T11:29:11;23.20;68.30
81800;DHT22;71195;52.528;5.704;2023-09-18T11:31:47;23.40;68.00
81800;DHT22;71195;52.528;5.704;2023-09-18T11:34:21;23.60;67.60
81800;DHT22;71195;52.528;5.704;2023-09-18T11:36:52;23.90;67.40
81800;DHT22;71195;52.528;5.704;2023-09-18T11:39:35;24.20;67.00
81800;DHT22;71195;52.528;5.704;2023-09-18T11:42:13;24.40;66.70
81800;DHT22;71195;52.528;5.704;2023-09-18T11:44:43;24.40;66.60
81800;DHT22;71195;52.528;5.704;2023-09-18T11:47:18;24.40;66.70
81800;DHT22;71195;52.528;5.704;2023-09-18T11:49:50;24.50;66.50
81800;DHT22;71195;52.528;5.704;2023-09-18T11:52:23;24.60;66.30
81800;DHT22;71195;52.528;5.704;2023-09-18T11:54:55;24.70;66.10
81800;DHT22;71195;52.528;5.704;2023-09-18T11:57:25;24.70;66.00
81800;DHT22;71195;52.528;5.704;2023-09-18T11:59:54;24.90;65.70
81800;DHT22;71195;52.528;5.704;2023-09-18T12:02:40;25.00;65.60
81800;DHT22;71195;52.528;5.704;2023-09-18T12:05:14;25.10;65.40
81800;DHT22;71195;52.528;5.704;2023-09-18T12:07:45;25.20;65.20
81800;DHT22;71195;52.528;5.704;2023-09-18T12:10:19;25.30;65.00
81800;DHT22;71195;52.528;5.704;2023-09-18T12:12:50;25.40;64.70
81800;DHT22;71195;52.528;5.704;2023-09-18T12:15:19;25.60;64.50
81800;DHT22;71195;52.528;5.704;2023-09-18T12:17:56;25.60;64.50
81800;DHT22;71195;52.528;5.704;2023-09-18T12:20:25;25.60;64.30
81800;DHT22;71195;52.528;5.704;2023-09-18T12:22:55;25.80;64.20
81800;DHT22;71195;52.528;5.704;2023-09-18T12:25:24;26.00;63.90
81800;DHT22;71195;52.528;5.704;2023-09-18T12:27:54;26.10;63.60
81800;DHT22;71195;52.528;5.704;2023-09-18T12:30:25;26.00;63.50
81800;DHT22;71195;52.528;5.704;2023-09-18T12:32:58;25.80;63.70
81800;DHT22;71195;52.528;5.704;2023-09-18T12:35:29;25.80;63.70
81800;DHT22;71195;52.528;5.704;2023-09-18T12:38:00;25.90;63.60
81800;DHT22;71195;52.528;5.704;2023-09-18T12:40:31;26.00;63.30
81800;DHT22;71195;52.528;5.704;2023-09-18T12:43:02;26.10;63.00
81800;DHT22;71195;52.528;5.704;2023-09-18T12:45:32;26.10;63.00
81800;DHT22;71195;52.528;5.704;2023-09-18T12:48:06;26.10;62.90
81800;DHT22;71195;52.528;5.704;2023-09-18T12:50:36;26.20;62.70
81800;DHT22;71195;52.528;5.704;2023-09-18T12:53:09;26.30;62.70
81800;DHT22;71195;52.528;5.704;2023-09-18T12:55:39;26.40;62.50
81800;DHT22;71195;52.528;5.704;2023-09-18T12:58:11;26.40;62.50
81800;DHT22;71195;52.528;5.704;2023-09-18T13:00:45;26.20;62.60
81800;DHT22;71195;52.528;5.704;2023-09-18T13:03:18;26.20;62.50
81800;DHT22;71195;52.528;5.704;2023-09-18T13:05:49;26.40;62.40
81800;DHT22;71195;52.528;5.704;2023-09-18T13:08:21;26.40;62.20
81800;DHT22;71195;52.528;5.704;2023-09-18T13:10:51;26.40;62.10
81800;DHT22;71195;52.528;5.704;2023-09-18T13:13:21;26.60;61.80
81800;DHT22;71195;52.528;5.704;2023-09-18T13:15:55;26.50;61.60
81800;DHT22;71195;52.528;5.704;2023-09-18T13:18:29;26.60;61.40
81800;DHT22;71195;52.528;5.704;2023-09-18T13:20:58;26.40;61.50
81800;DHT22;71195;52.528;5.704;2023-09-18T13:23:30;26.20;61.80
81800;DHT22;71195;52.528;5.704;2023-09-18T13:26:00;26.00;61.90
81800;DHT22;71195;52.528;5.704;2023-09-18T13:28:29;25.80;62.00
81800;DHT22;71195;52.528;5.704;2023-09-18T13:31:01;25.80;62.10
81800;DHT22;71195;52.528;5.704;2023-09-18T13:33:37;25.80;62.00
81800;DHT22;71195;52.528;5.704;2023-09-18T13:36:06;25.80;62.00
81800;DHT22;71195;52.528;5.704;2023-09-18T13:38:35;26.00;61.90
81800;DHT22;71195;52.528;5.704;2023-09-18T13:41:05;26.30;61.70
81800;DHT22;71195;52.528;5.704;2023-09-18T13:43:34;26.40;61.30
81800;DHT22;71195;52.528;5.704;2023-09-18T13:46:03;26.50;61.20
81800;DHT22;71195;52.528;5.704;2023-09-18T13:48:36;26.50;61.00
81800;DHT22;71195;52.528;5.704;2023-09-18T13:51:05;26.60;60.80
81800;DHT22;71195;52.528;5.704;2023-09-18T13:53:34;26.70;60.70
81800;DHT22;71195;52.528;5.704;2023-09-18T13:56:04;26.80;60.80
81800;DHT22;71195;52.528;5.704;2023-09-18T13:58:33;27.00;60.40
81800;DHT22;71195;52.528;5.704;2023-09-18T14:01:07;27.10;60.00
81800;DHT22;71195;52.528;5.704;2023-09-18T14:03:39;27.20;59.70
81800;DHT22;71195;52.528;5.704;2023-09-18T14:06:11;27.40;59.30
81800;DHT22;71195;52.528;5.704;2023-09-18T14:08:40;27.50;59.10
81800;DHT22;71195;52.528;5.704;2023-09-18T14:11:09;27.40;59.10
81800;DHT22;71195;52.528;5.704;2023-09-18T14:13:39;27.40;59.00
81800;DHT22;71195;52.528;5.704;2023-09-18T14:16:09;27.40;59.00
81800;DHT22;71195;52.528;5.704;2023-09-18T14:18:43;27.40;58.80
81800;DHT22;71195;52.528;5.704;2023-09-18T14:21:12;27.30;59.00
81800;DHT22;71195;52.528;5.704;2023-09-18T14:23:41;27.30;59.20
81800;DHT22;71195;52.528;5.704;2023-09-18T14:26:10;27.40;59.00
81800;DHT22;71195;52.528;5.704;2023-09-18T14:28:40;27.50;58.80
81800;DHT22;71195;52.528;5.704;2023-09-18T14:31:11;27.50;58.60
81800;DHT22;71195;52.528;5.704;2023-09-18T14:33:43;27.50;58.50
81800;DHT22;71195;52.528;5.704;2023-09-18T14:36:13;27.50;58.20
81800;DHT22;71195;52.528;5.704;2023-09-18T14:38:42;27.50;58.30
81800;DHT22;71195;52.528;5.704;2023-09-18T14:41:11;27.70;58.20
81800;DHT22;71195;52.528;5.704;2023-09-18T14:43:40;27.80;58.10
81800;DHT22;71195;52.528;5.704;2023-09-18T14:46:09;27.90;57.90
81800;DHT22;71195;52.528;5.704;2023-09-18T14:48:38;27.80;57.80
81800;DHT22;71195;52.528;5.704;2023-09-18T14:51:10;27.70;57.70
81800;DHT22;71195;52.528;5.704;2023-09-18T14:53:40;27.70;57.60
81800;DHT22;71195;52.528;5.704;2023-09-18T14:56:09;27.60;57.60
81800;DHT22;71195;52.528;5.704;2023-09-18T14:58:41;27.50;57.60
81800;DHT22;71195;52.528;5.704;2023-09-18T15:01:11;27.30;57.80
81800;DHT22;71195;52.528;5.704;2023-09-18T15:03:40;27.10;58.00
81800;DHT22;71195;52.528;5.704;2023-09-18T15:06:13;26.90;58.20
81800;DHT22;71195;52.528;5.704;2023-09-18T15:08:42;26.70;58.30
81800;DHT22;71195;52.528;5.704;2023-09-18T15:11:11;26.60;58.50
81800;DHT22;71195;52.528;5.704;2023-09-18T15:13:44;26.40;58.60
81800;DHT22;71195;52.528;5.704;2023-09-18T15:16:13;26.20;58.70
81800;DHT22;71195;52.528;5.704;2023-09-18T15:18:43;26.10;58.80
81800;DHT22;71195;52.528;5.704;2023-09-18T15:21:15;26.00;58.80
81800;DHT22;71195;52.528;5.704;2023-09-18T15:23:44;25.80;58.90
81800;DHT22;71195;52.528;5.704;2023-09-18T15:26:14;25.60;59.00
81800;DHT22;71195;52.528;5.704;2023-09-18T15:28:44;25.50;59.10
81800;DHT22;71195;52.528;5.704;2023-09-18T15:31:13;25.30;59.10
81800;DHT22;71195;52.528;5.704;2023-09-18T15:33:43;25.20;59.20
81800;DHT22;71195;52.528;5.704;2023-09-18T15:36:15;25.00;59.30
81800;DHT22;71195;52.528;5.704;2023-09-18T15:38:44;25.00;59.50
81800;DHT22;71195;52.528;5.704;2023-09-18T15:41:14;24.70;59.70
81800;DHT22;71195;52.528;5.704;2023-09-18T15:43:43;24.60;59.90
81800;DHT22;71195;52.528;5.704;2023-09-18T15:46:15;24.40;60.30
81800;DHT22;71195;52.528;5.704;2023-09-18T15:48:44;24.30;60.50
81800;DHT22;71195;52.528;5.704;2023-09-18T15:51:18;24.10;60.70